createdAt,value
2019-05-25T00:00:39.168Z,55.14
2019-05-25T00:03:07.580Z,55.00
2019-05-25T00:05:36.064Z,57.25
2019-05-25T00:08:04.599Z,56.01
2019-05-25T00:10:33.035Z,54.99
2019-05-25T00:13:01.426Z,54.88
2019-05-25T00:15:29.833Z,55.59
2019-05-25T00:17:58.227Z,54.90
2019-05-25T00:20:26.885Z,55.36
2019-05-25T00:22:55.285Z,54.93
2019-05-25T00:25:23.673Z,54.74
2019-05-25T00:27:52.080Z,54.77
2019-05-25T00:30:20.815Z,54.91
2019-05-25T00:32:49.225Z,55.61
2019-05-25T00:35:17.623Z,54.16
2019-05-25T00:37:46.043Z,54.25
2019-05-25T00:40:14.676Z,54.04
2019-05-25T00:42:43.081Z,54.11
2019-05-25T00:45:12.015Z,53.92
2019-05-25T00:47:40.431Z,53.43
2019-05-25T00:50:09.065Z,52.92
2019-05-25T00:52:37.455Z,52.81
2019-05-25T00:55:07.717Z,53.74
2019-05-25T00:57:36.121Z,55.49
2019-05-25T01:00:09.143Z,56.15
2019-05-25T01:02:39.282Z,56.34
2019-05-25T01:05:07.749Z,55.79
2019-05-25T01:07:36.160Z,55.40
2019-05-25T01:10:06.694Z,55.27
2019-05-25T01:12:35.102Z,56.28
2019-05-25T01:15:05.641Z,57.85
2019-05-25T01:17:34.134Z,56.94
2019-05-25T01:20:02.535Z,58.31
2019-05-25T01:22:30.946Z,58.40
2019-05-25T01:24:59.426Z,58.95
2019-05-25T01:27:27.826Z,59.56
2019-05-25T01:29:56.221Z,59.41
2019-05-25T01:32:24.624Z,58.37
2019-05-25T01:34:53.194Z,60.11
2019-05-25T01:37:21.729Z,59.13
2019-05-25T01:39:50.474Z,59.02
2019-05-25T01:42:18.888Z,57.61
2019-05-25T01:44:47.282Z,58.54
2019-05-25T01:47:15.678Z,58.39
2019-05-25T01:49:44.381Z,59.00
2019-05-25T01:52:12.774Z,58.68
2019-05-25T01:54:41.206Z,59.18
2019-05-25T01:57:09.593Z,58.68
2019-05-25T01:59:38.000Z,59.01
2019-05-25T02:02:06.791Z,60.27
2019-05-25T02:04:35.207Z,60.48
2019-05-25T02:07:03.666Z,61.16
2019-05-25T02:09:32.094Z,61.18
2019-05-25T02:12:00.615Z,61.74
2019-05-25T02:14:29.028Z,61.23
2019-05-25T02:16:57.425Z,60.89
2019-05-25T02:19:25.835Z,60.70
2019-05-25T02:21:54.227Z,61.35
2019-05-25T02:24:22.633Z,61.21
2019-05-25T02:26:51.056Z,60.80
2019-05-25T02:29:19.481Z,61.83
2019-05-25T02:31:48.143Z,61.15
2019-05-25T02:34:16.553Z,61.73
2019-05-25T02:36:44.960Z,62.79
2019-05-25T02:39:13.366Z,62.11
2019-05-25T02:41:41.823Z,62.60
2019-05-25T02:44:10.301Z,61.94
2019-05-25T02:46:38.697Z,61.97
2019-05-25T02:49:07.104Z,62.13
2019-05-25T02:51:35.766Z,62.82
2019-05-25T02:54:04.311Z,63.69
2019-05-25T02:56:32.705Z,63.66
2019-05-25T02:59:01.123Z,62.25
2019-05-25T03:01:29.521Z,63.16
2019-05-25T03:03:57.918Z,62.35
2019-05-25T03:06:27.991Z,62.38
2019-05-25T03:08:57.141Z,61.95
2019-05-25T03:11:26.872Z,61.89
2019-05-25T03:13:55.944Z,61.88
2019-05-25T03:16:24.690Z,61.63
2019-05-25T03:18:53.077Z,61.16
2019-05-25T03:21:21.739Z,61.50
2019-05-25T03:23:50.132Z,61.52
2019-05-25T03:26:18.542Z,62.32
2019-05-25T03:28:46.935Z,62.08
2019-05-25T03:31:15.673Z,61.79
2019-05-25T03:33:44.072Z,61.93
2019-05-25T03:36:12.470Z,62.26
2019-05-25T03:38:40.861Z,62.58
2019-05-25T03:41:09.283Z,62.53
2019-05-25T03:43:37.680Z,62.95
2019-05-25T03:46:06.308Z,63.08
2019-05-25T03:48:35.350Z,62.97
2019-05-25T03:51:04.031Z,63.06
2019-05-25T03:53:32.422Z,63.45
2019-05-25T03:56:05.741Z,63.56
2019-05-25T03:58:31.164Z,63.83
2019-05-25T04:00:59.601Z,63.81
2019-05-25T04:03:28.268Z,63.71
2019-05-25T04:05:56.668Z,66.13
2019-05-25T04:08:25.099Z,65.80
2019-05-25T04:10:53.498Z,65.50
2019-05-25T04:13:21.887Z,64.68
2019-05-25T04:15:50.303Z,64.80
2019-05-25T04:18:18.695Z,64.49
2019-05-25T04:20:47.115Z,64.31
2019-05-25T04:23:15.516Z,64.28
2019-05-25T04:25:43.966Z,64.61
2019-05-25T04:28:12.309Z,64.74
2019-05-25T04:30:40.727Z,64.87
2019-05-25T04:33:09.125Z,64.82
2019-05-25T04:35:39.931Z,64.99
2019-05-25T04:38:07.947Z,65.40
2019-05-25T04:40:36.331Z,65.78
2019-05-25T04:43:04.912Z,65.71
2019-05-25T04:45:33.566Z,66.54
2019-05-25T04:48:01.986Z,65.79
2019-05-25T04:50:30.647Z,65.66
2019-05-25T04:52:59.061Z,65.69
2019-05-25T04:55:27.447Z,64.62
2019-05-25T04:57:55.847Z,63.72
2019-05-25T05:00:24.553Z,63.82
2019-05-25T05:02:52.966Z,63.43
2019-05-25T05:05:21.356Z,63.35
2019-05-25T05:07:49.767Z,63.89
2019-05-25T05:10:18.292Z,63.73
2019-05-25T05:12:46.710Z,63.46
2019-05-25T05:15:15.639Z,63.67
2019-05-25T05:17:44.049Z,64.55
2019-05-25T05:20:12.983Z,63.85
2019-05-25T05:22:41.401Z,63.69
2019-05-25T05:25:10.831Z,65.48
2019-05-25T05:27:40.129Z,65.24
2019-05-25T05:30:10.797Z,62.23
2019-05-25T05:32:39.256Z,63.98
2019-05-25T05:35:08.518Z,59.11
2019-05-25T05:37:37.146Z,58.39
2019-05-25T05:40:07.682Z,57.65
2019-05-25T05:42:38.720Z,57.95
2019-05-25T05:45:08.449Z,57.95
2019-05-25T05:47:36.933Z,59.13
2019-05-25T05:50:10.285Z,56.61
2019-05-25T05:52:39.357Z,56.88
2019-05-25T05:55:10.206Z,56.24
2019-05-25T05:57:38.590Z,54.38
2019-05-25T06:00:09.943Z,54.52
2019-05-25T06:02:38.342Z,54.73
2019-05-25T06:05:07.193Z,55.34
2019-05-25T06:07:35.591Z,53.22
2019-05-25T06:10:05.959Z,54.18
2019-05-25T06:12:34.705Z,55.57
2019-05-25T06:15:05.042Z,54.86
2019-05-25T06:17:33.421Z,54.26
2019-05-25T06:20:01.811Z,55.57
2019-05-25T06:22:30.203Z,57.92
2019-05-25T06:24:58.652Z,57.81
2019-05-25T06:27:28.046Z,57.01
2019-05-25T06:29:56.506Z,57.46
2019-05-25T06:32:24.919Z,56.04
2019-05-25T06:34:53.309Z,56.47
2019-05-25T06:37:21.718Z,56.93
2019-05-25T06:39:50.120Z,56.52
2019-05-25T06:42:18.519Z,56.75
2019-05-25T06:44:46.935Z,56.55
2019-05-25T06:47:15.334Z,55.37
2019-05-25T06:49:43.739Z,53.90
2019-05-25T06:52:12.142Z,53.14
2019-05-25T06:54:40.618Z,51.97
2019-05-25T06:57:09.018Z,51.65
2019-05-25T06:59:37.694Z,50.11
2019-05-25T07:02:06.093Z,49.56
2019-05-25T07:04:34.523Z,50.96
2019-05-25T07:07:02.919Z,46.53
2019-05-25T07:09:31.320Z,45.45
2019-05-25T07:11:59.718Z,44.79
2019-05-25T07:14:28.279Z,44.95
2019-05-25T07:16:56.689Z,43.85
2019-05-25T07:19:25.243Z,40.91
2019-05-25T07:21:53.674Z,39.29
2019-05-25T07:24:22.061Z,40.70
2019-05-25T07:26:50.471Z,38.90
2019-05-25T07:29:18.874Z,39.42
2019-05-25T07:31:47.279Z,39.40
2019-05-25T07:34:15.667Z,36.77
2019-05-25T07:36:44.071Z,36.33
2019-05-25T07:39:12.484Z,36.19
2019-05-25T07:41:40.972Z,37.58
2019-05-25T07:44:09.360Z,37.92
2019-05-25T07:46:37.777Z,36.68
2019-05-25T07:49:06.175Z,36.12
2019-05-25T07:51:34.604Z,35.10
2019-05-25T07:54:03.016Z,33.89
2019-05-25T07:56:31.396Z,33.39
2019-05-25T07:58:59.824Z,35.02
2019-05-25T08:01:28.229Z,37.87
2019-05-25T08:03:56.891Z,34.93
2019-05-25T08:06:25.311Z,34.90
2019-05-25T08:08:53.708Z,34.05
2019-05-25T08:11:22.115Z,34.58
2019-05-25T08:13:50.523Z,33.28
2019-05-25T08:16:19.201Z,33.87
2019-05-25T08:18:47.589Z,33.83
2019-05-25T08:21:16.018Z,34.01
2019-05-25T08:23:44.406Z,34.52
2019-05-25T08:26:12.806Z,33.63
2019-05-25T08:28:41.463Z,33.40
2019-05-25T08:31:09.883Z,33.66
2019-05-25T08:33:38.276Z,33.55
2019-05-25T08:36:06.685Z,33.10
2019-05-25T08:38:35.077Z,33.95
2019-05-25T08:41:03.475Z,33.59
2019-05-25T08:43:32.753Z,32.58
2019-05-25T08:46:01.151Z,31.48
2019-05-25T08:48:29.551Z,30.79
2019-05-25T08:50:59.747Z,30.77
2019-05-25T08:53:40.552Z,30.34
2019-05-25T08:55:58.372Z,29.25
2019-05-25T08:58:26.785Z,30.27
2019-05-25T09:00:55.183Z,31.28
2019-05-25T09:03:23.607Z,31.20
2019-05-25T09:05:52.005Z,30.95
2019-05-25T09:08:20.418Z,30.38
2019-05-25T09:10:48.806Z,31.51
2019-05-25T09:13:17.226Z,32.21
2019-05-25T09:15:45.691Z,30.04
2019-05-25T09:18:14.105Z,30.98
2019-05-25T09:20:42.503Z,32.86
2019-05-25T09:23:10.904Z,32.86
2019-05-25T09:25:39.568Z,30.35
2019-05-25T09:28:07.976Z,29.85
2019-05-25T09:30:36.477Z,30.47
2019-05-25T09:33:04.972Z,31.63
2019-05-25T09:35:33.366Z,32.06
2019-05-25T09:38:01.766Z,30.31
2019-05-25T09:40:30.433Z,29.55
2019-05-25T09:42:58.884Z,29.55
2019-05-25T09:45:27.276Z,29.74
2019-05-25T09:47:55.686Z,29.74
2019-05-25T09:50:24.432Z,30.26
2019-05-25T09:52:52.860Z,29.00
2019-05-25T09:55:21.310Z,29.16
2019-05-25T09:57:49.730Z,29.16
2019-05-25T10:00:18.691Z,29.33
2019-05-25T10:02:47.250Z,30.03
2019-05-25T10:05:16.178Z,30.07
2019-05-25T10:07:44.640Z,30.07
2019-05-25T10:10:13.585Z,29.78
2019-05-25T10:12:41.983Z,30.45
2019-05-25T10:15:11.020Z,27.76
2019-05-25T10:17:39.473Z,28.40
2019-05-25T10:20:08.369Z,29.49
2019-05-25T10:22:37.143Z,28.64
2019-05-25T10:25:07.415Z,28.64
2019-05-25T10:27:35.816Z,28.64
2019-05-25T10:30:05.472Z,27.21
2019-05-25T10:32:33.877Z,28.76
2019-05-25T10:35:02.282Z,28.14
2019-05-25T10:37:30.691Z,28.07
2019-05-25T10:39:59.372Z,29.27
2019-05-25T10:42:28.055Z,28.63
2019-05-25T10:44:56.740Z,27.36
2019-05-25T10:47:25.129Z,27.36
2019-05-25T10:49:53.535Z,27.36
2019-05-25T10:52:21.993Z,27.41
2019-05-25T10:54:50.405Z,27.96
2019-05-25T10:57:18.803Z,26.36
2019-05-25T10:59:52.754Z,28.34
2019-05-25T11:02:17.341Z,30.33
2019-05-25T11:04:45.757Z,30.33
2019-05-25T11:07:14.150Z,29.37
2019-05-25T11:09:42.586Z,30.42
2019-05-25T11:12:11.380Z,29.70
2019-05-25T11:14:39.795Z,28.85
2019-05-25T11:17:08.236Z,28.48
2019-05-25T11:19:36.628Z,26.63
2019-05-25T11:22:05.322Z,27.41
2019-05-25T11:24:33.806Z,27.25
2019-05-25T11:27:02.265Z,29.51
2019-05-25T11:29:30.700Z,29.21
2019-05-25T11:32:03.702Z,28.48
2019-05-25T11:34:29.262Z,30.09
2019-05-25T11:36:57.929Z,30.09
2019-05-25T11:39:26.622Z,30.00
2019-05-25T11:41:55.034Z,29.64
2019-05-25T11:44:23.446Z,28.75
2019-05-25T11:46:51.870Z,28.89
2019-05-25T11:49:22.717Z,27.76
2019-05-25T11:51:53.961Z,27.76
2019-05-25T11:54:22.372Z,29.29
2019-05-25T11:56:50.784Z,29.29
2019-05-25T11:59:19.175Z,30.52
2019-05-25T12:01:47.587Z,30.41
2019-05-25T12:04:15.975Z,29.45
2019-05-25T12:06:44.392Z,29.34
2019-05-25T12:09:12.790Z,28.72
2019-05-25T12:11:41.266Z,28.02
2019-05-25T12:14:09.853Z,30.41
2019-05-25T12:16:38.239Z,30.41
2019-05-25T12:19:06.707Z,30.97
2019-05-25T12:21:35.118Z,31.83
2019-05-25T12:24:03.514Z,31.25
2019-05-25T12:26:31.908Z,33.34
2019-05-25T12:29:00.356Z,36.90
2019-05-25T12:31:28.718Z,38.96
2019-05-25T12:33:57.137Z,40.79
2019-05-25T12:36:25.537Z,41.26
2019-05-25T12:38:53.976Z,43.22
2019-05-25T12:41:22.655Z,43.85
2019-05-25T12:43:51.043Z,44.27
2019-05-25T12:46:19.457Z,44.96
2019-05-25T12:48:47.848Z,45.83
2019-05-25T12:51:17.825Z,46.84
2019-05-25T12:53:46.386Z,47.33
2019-05-25T12:56:14.784Z,48.46
2019-05-25T12:58:43.191Z,51.27
2019-05-25T13:01:11.582Z,52.87
2019-05-25T13:03:39.990Z,54.40
2019-05-25T13:06:08.386Z,56.07
2019-05-25T13:08:36.808Z,56.46
2019-05-25T13:11:09.260Z,56.92
2019-05-25T13:13:35.397Z,58.55
2019-05-25T13:16:04.322Z,57.57
2019-05-25T13:18:32.691Z,59.77
2019-05-25T13:21:01.092Z,61.25
2019-05-25T13:23:29.492Z,61.80
2019-05-25T13:25:57.898Z,61.98
2019-05-25T13:28:26.604Z,63.78
2019-05-25T13:31:08.796Z,65.00
2019-05-25T13:33:25.179Z,64.30
2019-05-25T13:35:53.574Z,63.54
2019-05-25T13:38:22.257Z,62.67
2019-05-25T13:40:51.367Z,63.23
2019-05-25T13:43:19.763Z,62.96
2019-05-25T13:45:48.184Z,63.98
2019-05-25T13:48:16.623Z,64.26
2019-05-25T13:50:45.184Z,64.16
2019-05-25T13:53:13.609Z,63.96
2019-05-25T13:55:42.035Z,63.42
2019-05-25T13:58:10.444Z,60.31
2019-05-25T14:00:38.849Z,57.81
2019-05-25T14:03:07.272Z,56.49
2019-05-25T14:05:35.685Z,60.41
2019-05-25T14:08:04.101Z,59.12
2019-05-25T14:10:32.495Z,57.31
2019-05-25T14:13:00.902Z,57.60
2019-05-25T14:15:29.310Z,57.50
2019-05-25T14:17:57.788Z,52.11
2019-05-25T14:20:26.522Z,50.54
2019-05-25T14:22:54.930Z,52.86
2019-05-25T14:25:23.336Z,49.25
2019-05-25T14:27:52.104Z,49.20
2019-05-25T14:30:20.810Z,51.33
2019-05-25T14:32:49.201Z,46.35
2019-05-25T14:35:17.618Z,47.22
2019-05-25T14:37:46.020Z,46.00
2019-05-25T14:40:14.658Z,48.36
2019-05-25T14:42:43.061Z,46.28
2019-05-25T14:45:12.805Z,45.32
2019-05-25T14:47:41.209Z,44.65
2019-05-25T14:50:09.863Z,44.12
2019-05-25T14:52:38.278Z,40.90
2019-05-25T14:55:08.404Z,37.14
2019-05-25T14:57:36.834Z,33.54
2019-05-25T15:00:10.265Z,34.21
2019-05-25T15:02:38.657Z,31.69
2019-05-25T15:05:07.213Z,32.99
2019-05-25T15:07:35.620Z,34.18
2019-05-25T15:10:05.980Z,35.14
2019-05-25T15:12:34.436Z,37.76
2019-05-25T15:15:02.851Z,38.92
2019-05-25T15:17:31.261Z,37.49
2019-05-25T15:20:00.089Z,36.96
2019-05-25T15:22:28.482Z,37.85
2019-05-25T15:24:56.890Z,36.22
2019-05-25T15:27:25.292Z,37.18
2019-05-25T15:29:53.706Z,37.10
2019-05-25T15:32:22.101Z,37.45
2019-05-25T15:34:50.517Z,36.31
2019-05-25T15:37:18.939Z,36.76
2019-05-25T15:39:47.341Z,36.29
2019-05-25T15:42:15.763Z,36.40
2019-05-25T15:44:44.159Z,36.74
2019-05-25T15:47:12.823Z,37.52
2019-05-25T15:49:41.224Z,39.18
2019-05-25T15:52:09.635Z,37.50
2019-05-25T15:54:38.124Z,38.43
2019-05-25T15:57:06.558Z,40.08
2019-05-25T15:59:34.963Z,39.78
2019-05-25T16:02:03.451Z,41.21
2019-05-25T16:04:31.925Z,41.96
2019-05-25T16:07:00.409Z,41.67
2019-05-25T16:09:29.087Z,42.86
2019-05-25T16:11:57.510Z,42.32
2019-05-25T16:14:25.901Z,41.50
2019-05-25T16:16:54.327Z,39.89
2019-05-25T16:19:22.722Z,40.28
2019-05-25T16:21:51.128Z,40.12
2019-05-25T16:24:19.529Z,41.02
2019-05-25T16:26:47.933Z,41.60
2019-05-25T16:29:16.328Z,41.47
2019-05-25T16:31:44.735Z,41.28
2019-05-25T16:34:13.143Z,41.56
2019-05-25T16:36:41.551Z,41.76
2019-05-25T16:39:09.955Z,43.07
2019-05-25T16:41:38.370Z,42.68
2019-05-25T16:44:06.757Z,42.98
2019-05-25T16:46:36.797Z,42.64
2019-05-25T16:49:05.362Z,43.44
2019-05-25T16:51:33.753Z,43.23
2019-05-25T16:54:02.490Z,43.63
2019-05-25T16:56:30.881Z,43.51
2019-05-25T16:59:08.128Z,43.79
2019-05-25T17:01:47.402Z,43.82
2019-05-25T17:04:07.149Z,43.29
2019-05-25T17:06:35.912Z,43.58
2019-05-25T17:09:05.872Z,43.57
2019-05-25T17:11:34.518Z,44.57
2019-05-25T17:14:02.942Z,45.66
2019-05-25T17:16:31.361Z,45.56
2019-05-25T17:18:59.770Z,47.03
2019-05-25T17:21:28.180Z,46.93
2019-05-25T17:23:56.600Z,46.84
2019-05-25T17:26:24.996Z,44.66
2019-05-25T17:28:53.408Z,43.63
2019-05-25T17:31:21.791Z,42.80
2019-05-25T17:33:50.579Z,43.21
2019-05-25T17:36:18.972Z,42.88
2019-05-25T17:38:47.371Z,42.36
2019-05-25T17:41:15.796Z,41.73
2019-05-25T17:43:44.187Z,42.21
2019-05-25T17:46:12.840Z,40.17
2019-05-25T17:48:41.759Z,40.12
2019-05-25T17:51:10.179Z,39.98
2019-05-25T17:53:38.929Z,41.11
2019-05-25T17:56:07.442Z,41.09
2019-05-25T17:58:35.858Z,41.38
2019-05-25T18:01:04.561Z,41.66
2019-05-25T18:03:33.024Z,41.27
2019-05-25T18:06:01.539Z,41.42
2019-05-25T18:08:30.010Z,41.10
2019-05-25T18:10:58.519Z,41.11
2019-05-25T18:13:29.050Z,41.51
2019-05-25T18:15:57.271Z,41.92
2019-05-25T18:18:25.765Z,41.46
2019-05-25T18:20:54.207Z,41.83
2019-05-25T18:23:22.747Z,42.17
2019-05-25T18:25:51.366Z,42.69
2019-05-25T18:28:19.782Z,43.46
2019-05-25T18:30:48.320Z,42.79
2019-05-25T18:33:16.759Z,42.86
2019-05-25T18:35:45.257Z,43.08
2019-05-25T18:38:13.732Z,43.36
2019-05-25T18:40:42.146Z,43.58
2019-05-25T18:43:10.627Z,43.92
2019-05-25T18:45:39.034Z,44.25
2019-05-25T18:48:07.555Z,45.64
2019-05-25T18:50:35.996Z,48.20
2019-05-25T18:53:04.674Z,48.17
2019-05-25T18:55:33.237Z,47.71
2019-05-25T18:58:01.804Z,48.13
2019-05-25T19:00:30.532Z,47.67
2019-05-25T19:02:59.226Z,48.38
2019-05-25T19:05:27.742Z,48.27
2019-05-25T19:07:56.208Z,48.68
2019-05-25T19:10:24.898Z,48.92
2019-05-25T19:12:53.395Z,49.69
2019-05-25T19:15:22.269Z,50.05
2019-05-25T19:17:50.714Z,50.57
2019-05-25T19:20:21.262Z,51.01
2019-05-25T19:22:49.868Z,51.12
2019-05-25T19:25:19.231Z,51.20
2019-05-25T19:27:47.735Z,51.56
2019-05-25T19:30:16.617Z,52.12
2019-05-25T19:32:45.079Z,52.51
2019-05-25T19:35:13.758Z,53.22
2019-05-25T19:37:42.765Z,53.95
2019-05-25T19:40:11.726Z,54.19
2019-05-25T19:42:40.363Z,55.43
2019-05-25T19:45:09.555Z,55.57
2019-05-25T19:47:38.113Z,56.12
2019-05-25T19:50:07.912Z,56.20
2019-05-25T19:52:36.443Z,57.19
2019-05-25T19:55:09.240Z,57.85
2019-05-25T19:57:37.708Z,57.85
2019-05-25T20:00:10.487Z,57.67
2019-05-25T20:02:39.039Z,59.50
2019-05-25T20:05:16.201Z,58.97
2019-05-25T20:07:39.087Z,58.86
2019-05-25T20:10:09.441Z,59.82
2019-05-25T20:12:37.998Z,60.04
2019-05-25T20:15:08.960Z,59.78
2019-05-25T20:17:37.494Z,58.86
2019-05-25T20:20:07.486Z,57.48
2019-05-25T20:22:35.903Z,58.93
2019-05-25T20:25:07.440Z,59.43
2019-05-25T20:27:36.069Z,59.56
2019-05-25T20:30:07.604Z,60.69
2019-05-25T20:32:36.130Z,62.25
2019-05-25T20:35:05.999Z,62.07
2019-05-25T20:37:34.530Z,62.58
2019-05-25T20:40:03.303Z,62.51
2019-05-25T20:42:31.916Z,61.26
2019-05-25T20:45:00.360Z,61.78
2019-05-25T20:47:28.837Z,62.80
2019-05-25T20:49:57.253Z,63.38
2019-05-25T20:52:25.720Z,63.85
2019-05-25T20:54:54.442Z,64.28
2019-05-25T20:57:22.901Z,64.24
2019-05-25T20:59:51.314Z,63.33
2019-05-25T21:02:19.779Z,63.30
2019-05-25T21:04:48.195Z,63.03
2019-05-25T21:07:16.693Z,63.76
2019-05-25T21:09:45.148Z,64.49
2019-05-25T21:12:13.552Z,65.27
2019-05-25T21:14:41.993Z,67.12
2019-05-25T21:17:10.511Z,66.65
2019-05-25T21:19:38.917Z,66.18
2019-05-25T21:22:07.352Z,66.04
2019-05-25T21:24:36.141Z,66.19
2019-05-25T21:27:05.028Z,68.98
2019-05-25T21:29:33.475Z,69.66
2019-05-25T21:32:01.866Z,68.05
2019-05-25T21:34:30.564Z,67.23
2019-05-25T21:36:58.952Z,65.16
2019-05-25T21:39:27.356Z,65.44
2019-05-25T21:41:55.757Z,67.19
2019-05-25T21:44:24.547Z,66.68
2019-05-25T21:46:52.940Z,67.50
2019-05-25T21:49:21.365Z,66.75
2019-05-25T21:51:49.751Z,65.44
2019-05-25T21:54:18.174Z,67.37
2019-05-25T21:56:46.568Z,69.58
2019-05-25T21:59:14.998Z,70.13
2019-05-25T22:01:43.383Z,71.01
2019-05-25T22:04:11.785Z,70.39
2019-05-25T22:06:40.229Z,70.20
2019-05-25T22:09:08.964Z,70.52
2019-05-25T22:11:37.354Z,69.63
2019-05-25T22:14:05.779Z,67.25
2019-05-25T22:16:34.189Z,68.69
2019-05-25T22:19:02.590Z,69.03
2019-05-25T22:21:31.005Z,71.42
2019-05-25T22:23:59.420Z,71.11
2019-05-25T22:26:28.157Z,71.92
2019-05-25T22:28:56.574Z,70.07
2019-05-25T22:31:24.971Z,69.23
2019-05-25T22:33:53.365Z,68.74
2019-05-25T22:36:21.768Z,69.33
2019-05-25T22:38:50.415Z,71.02
2019-05-25T22:41:19.949Z,70.80
2019-05-25T22:43:48.569Z,70.25
2019-05-25T22:46:16.991Z,69.90
2019-05-25T22:48:45.397Z,71.31
2019-05-25T22:51:13.797Z,69.56
2019-05-25T22:53:42.770Z,68.90
2019-05-25T22:56:11.162Z,69.11
2019-05-25T22:58:39.566Z,69.81
2019-05-25T23:01:07.976Z,69.91
2019-05-25T23:03:36.434Z,71.30
2019-05-25T23:06:04.851Z,70.42
2019-05-25T23:08:33.316Z,69.44
2019-05-25T23:11:01.736Z,69.91
2019-05-25T23:13:30.135Z,70.27
2019-05-25T23:15:58.537Z,70.62
2019-05-25T23:18:26.960Z,70.61
2019-05-25T23:20:55.367Z,70.75
2019-05-25T23:23:23.753Z,71.29
2019-05-25T23:25:53.808Z,71.12
2019-05-25T23:28:22.200Z,71.02
2019-05-25T23:31:08.593Z,74.03
2019-05-25T23:33:36.964Z,73.81
2019-05-25T23:36:05.627Z,72.30
2019-05-25T23:38:34.030Z,70.08
2019-05-25T23:41:02.434Z,70.96
2019-05-25T23:43:30.824Z,72.01
2019-05-25T23:45:59.238Z,72.35
2019-05-25T23:48:27.629Z,71.66
2019-05-25T23:50:56.037Z,71.31
2019-05-25T23:53:24.442Z,72.26
2019-05-25T23:55:52.841Z,72.75
2019-05-25T23:58:21.234Z,71.12
